sensor_id;sensor_type;location;lat;lon;timestamp;pressure;altitude;pressure_sealevel;temperature;humidity
37848;BME280;23688;33.130;-117.188;2022-09-13T00:00:38;99176.94;;;25.05;78.32
37848;BME280;23688;33.130;-117.188;2022-09-13T00:03:07;99180.38;;;25.09;78.72
37848;BME280;23688;33.130;-117.188;2022-09-13T00:05:36;99169.16;;;24.97;79.54
37848;BME280;23688;33.130;-117.188;2022-09-13T00:08:02;99178.19;;;24.89;80.44
37848;BME280;23688;33.130;-117.188;2022-09-13T00:10:29;99155.59;;;24.69;81.95
37848;BME280;23688;33.130;-117.188;2022-09-13T00:12:57;99190.44;;;24.96;81.12
37848;BME280;23688;33.130;-117.188;2022-09-13T00:15:23;99191.19;;;25.01;81.32
37848;BME280;23688;33.130;-117.188;2022-09-13T00:17:50;99190.06;;;25.11;81.59
37848;BME280;23688;33.130;-117.188;2022-09-13T00:20:16;99176.28;;;24.94;80.52
37848;BME280;23688;33.130;-117.188;2022-09-13T00:22:42;99180.75;;;24.92;81.24
37848;BME280;23688;33.130;-117.188;2022-09-13T00:25:09;99177.34;;;24.87;79.24
37848;BME280;23688;33.130;-117.188;2022-09-13T00:27:36;99174.41;;;24.59;80.24
37848;BME280;23688;33.130;-117.188;2022-09-13T00:30:07;99181.81;;;24.41;81.36
37848;BME280;23688;33.130;-117.188;2022-09-13T00:32:34;99178.50;;;24.30;83.14
37848;BME280;23688;33.130;-117.188;2022-09-13T00:35:01;99177.53;;;24.34;82.61
37848;BME280;23688;33.130;-117.188;2022-09-13T00:37:28;99185.66;;;24.25;82.54
37848;BME280;23688;33.130;-117.188;2022-09-13T00:39:54;99181.22;;;24.25;81.45
37848;BME280;23688;33.130;-117.188;2022-09-13T00:42:25;99179.72;;;24.12;82.07
37848;BME280;23688;33.130;-117.188;2022-09-13T00:44:58;99180.50;;;24.17;80.93
37848;BME280;23688;33.130;-117.188;2022-09-13T00:50:34;99186.78;;;24.13;81.94
37848;BME280;23688;33.130;-117.188;2022-09-13T00:55:43;99176.16;;;24.13;83.70
37848;BME280;23688;33.130;-117.188;2022-09-13T00:58:20;99174.34;;;24.17;82.72
37848;BME280;23688;33.130;-117.188;2022-09-13T01:00:48;99170.53;;;24.30;82.29
37848;BME280;23688;33.130;-117.188;2022-09-13T01:03:17;99162.31;;;24.44;82.18
37848;BME280;23688;33.130;-117.188;2022-09-13T01:05:53;99168.78;;;24.72;81.88
37848;BME280;23688;33.130;-117.188;2022-09-13T01:08:21;99168.47;;;24.88;80.45
37848;BME280;23688;33.130;-117.188;2022-09-13T01:10:51;99154.31;;;24.87;78.98
37848;BME280;23688;33.130;-117.188;2022-09-13T01:13:20;99165.72;;;24.92;80.22
37848;BME280;23688;33.130;-117.188;2022-09-13T01:15:48;99164.03;;;24.90;79.23
37848;BME280;23688;33.130;-117.188;2022-09-13T01:18:15;99161.59;;;24.79;79.22
37848;BME280;23688;33.130;-117.188;2022-09-13T01:43:19;99177.75;;;23.74;84.26
37848;BME280;23688;33.130;-117.188;2022-09-13T01:51:31;99190.53;;;23.45;88.37
37848;BME280;23688;33.130;-117.188;2022-09-13T02:00:06;99198.22;;;23.05;91.12
37848;BME280;23688;33.130;-117.188;2022-09-13T02:05:39;99194.19;;;22.75;93.59
37848;BME280;23688;33.130;-117.188;2022-09-13T02:08:44;99212.00;;;22.60;95.87
37848;BME280;23688;33.130;-117.188;2022-09-13T02:11:13;99211.28;;;22.48;98.01
37848;BME280;23688;33.130;-117.188;2022-09-13T02:14:45;99211.31;;;22.46;98.79
37848;BME280;23688;33.130;-117.188;2022-09-13T02:22:22;99210.16;;;22.69;98.13
37848;BME280;23688;33.130;-117.188;2022-09-13T02:24:54;99217.22;;;22.67;99.15
37848;BME280;23688;33.130;-117.188;2022-09-13T02:27:27;99206.69;;;22.60;99.46
37848;BME280;23688;33.130;-117.188;2022-09-13T02:30:00;99222.41;;;22.76;98.98
37848;BME280;23688;33.130;-117.188;2022-09-13T02:38:11;99231.94;;;22.91;98.71
37848;BME280;23688;33.130;-117.188;2022-09-13T02:40:44;99223.22;;;22.82;99.17
37848;BME280;23688;33.130;-117.188;2022-09-13T02:43:19;99228.56;;;22.76;100.00
37848;BME280;23688;33.130;-117.188;2022-09-13T02:48:59;99230.47;;;22.65;100.00
37848;BME280;23688;33.130;-117.188;2022-09-13T02:51:54;99230.50;;;22.60;100.00
37848;BME280;23688;33.130;-117.188;2022-09-13T03:00:06;99244.09;;;23.07;98.85
37848;BME280;23688;33.130;-117.188;2022-09-13T03:02:34;99237.09;;;23.04;98.48
37848;BME280;23688;33.130;-117.188;2022-09-13T03:05:04;99245.09;;;22.95;99.24
37848;BME280;23688;33.130;-117.188;2022-09-13T03:07:31;99243.38;;;22.93;98.91
37848;BME280;23688;33.130;-117.188;2022-09-13T03:10:03;99242.44;;;23.00;98.68
37848;BME280;23688;33.130;-117.188;2022-09-13T03:12:47;99254.59;;;23.13;98.08
37848;BME280;23688;33.130;-117.188;2022-09-13T03:15:56;99260.06;;;22.99;98.95
37848;BME280;23688;33.130;-117.188;2022-09-13T03:21:35;99273.88;;;23.23;97.03
37848;BME280;23688;33.130;-117.188;2022-09-13T03:27:18;99278.09;;;23.39;95.62
37848;BME280;23688;33.130;-117.188;2022-09-13T03:29:58;99267.50;;;23.39;94.73
37848;BME280;23688;33.130;-117.188;2022-09-13T03:45:48;99277.28;;;23.31;94.27
37848;BME280;23688;33.130;-117.188;2022-09-13T03:48:16;99279.41;;;23.07;95.33
37848;BME280;23688;33.130;-117.188;2022-09-13T03:50:45;99288.38;;;22.93;96.37
37848;BME280;23688;33.130;-117.188;2022-09-13T03:53:17;99279.69;;;22.80;97.52
37848;BME280;23688;33.130;-117.188;2022-09-13T03:55:45;99288.47;;;22.83;97.63
37848;BME280;23688;33.130;-117.188;2022-09-13T03:58:17;99297.44;;;22.70;98.58
37848;BME280;23688;33.130;-117.188;2022-09-13T04:00:44;99289.44;;;22.76;97.61
37848;BME280;23688;33.130;-117.188;2022-09-13T04:03:13;99295.50;;;22.84;97.70
37848;BME280;23688;33.130;-117.188;2022-09-13T04:05:39;99298.31;;;22.74;97.88
37848;BME280;23688;33.130;-117.188;2022-09-13T04:08:06;99303.59;;;22.74;98.09
37848;BME280;23688;33.130;-117.188;2022-09-13T04:10:36;99309.06;;;22.57;98.58
37848;BME280;23688;33.130;-117.188;2022-09-13T04:13:03;99308.03;;;22.70;98.39
37848;BME280;23688;33.130;-117.188;2022-09-13T04:15:30;99309.03;;;22.63;98.54
37848;BME280;23688;33.130;-117.188;2022-09-13T04:17:57;99312.63;;;22.54;99.37
37848;BME280;23688;33.130;-117.188;2022-09-13T04:20:23;99308.50;;;22.22;100.00
37848;BME280;23688;33.130;-117.188;2022-09-13T04:22:54;99308.59;;;22.09;100.00
37848;BME280;23688;33.130;-117.188;2022-09-13T04:25:22;99307.78;;;21.99;100.00
37848;BME280;23688;33.130;-117.188;2022-09-13T04:27:56;99311.38;;;21.92;100.00
37848;BME280;23688;33.130;-117.188;2022-09-13T04:30:25;99295.53;;;21.89;100.00
37848;BME280;23688;33.130;-117.188;2022-09-13T04:32:52;99303.34;;;22.06;100.00
37848;BME280;23688;33.130;-117.188;2022-09-13T04:35:24;99309.41;;;22.21;100.00
37848;BME280;23688;33.130;-117.188;2022-09-13T04:37:54;99309.44;;;22.14;100.00
37848;BME280;23688;33.130;-117.188;2022-09-13T04:40:21;99310.22;;;22.30;100.00
37848;BME280;23688;33.130;-117.188;2022-09-13T04:42:48;99311.09;;;22.29;100.00
37848;BME280;23688;33.130;-117.188;2022-09-13T04:45:14;99300.63;;;22.15;100.00
37848;BME280;23688;33.130;-117.188;2022-09-13T04:47:41;99302.34;;;22.22;100.00
37848;BME280;23688;33.130;-117.188;2022-09-13T04:50:08;99305.94;;;22.12;100.00
37848;BME280;23688;33.130;-117.188;2022-09-13T04:52:35;99296.41;;;21.92;100.00
37848;BME280;23688;33.130;-117.188;2022-09-13T04:55:01;99300.69;;;22.06;100.00
37848;BME280;23688;33.130;-117.188;2022-09-13T04:57:28;99304.31;;;21.94;100.00
37848;BME280;23688;33.130;-117.188;2022-09-13T04:59:56;99306.94;;;21.94;100.00
37848;BME280;23688;33.130;-117.188;2022-09-13T05:02:22;99311.25;;;22.04;100.00
37848;BME280;23688;33.130;-117.188;2022-09-13T05:04:49;99309.47;;;22.11;100.00
37848;BME280;23688;33.130;-117.188;2022-09-13T05:07:15;99304.09;;;22.18;100.00
37848;BME280;23688;33.130;-117.188;2022-09-13T05:09:42;99305.97;;;22.04;100.00
37848;BME280;23688;33.130;-117.188;2022-09-13T05:12:11;99307.78;;;22.02;100.00
37848;BME280;23688;33.130;-117.188;2022-09-13T05:14:39;99291.81;;;22.11;100.00
37848;BME280;23688;33.130;-117.188;2022-09-13T05:17:05;99305.88;;;22.22;100.00
37848;BME280;23688;33.130;-117.188;2022-09-13T05:19:35;99318.03;;;22.40;100.00
37848;BME280;23688;33.130;-117.188;2022-09-13T05:22:02;99320.59;;;22.51;100.00
37848;BME280;23688;33.130;-117.188;2022-09-13T05:24:28;99316.91;;;22.64;100.00
37848;BME280;23688;33.130;-117.188;2022-09-13T05:26:55;99316.84;;;22.72;100.00
37848;BME280;23688;33.130;-117.188;2022-09-13T05:29:21;99317.66;;;22.77;100.00
37848;BME280;23688;33.130;-117.188;2022-09-13T05:31:47;99326.44;;;22.81;100.00
37848;BME280;23688;33.130;-117.188;2022-09-13T05:34:15;99305.31;;;22.76;100.00
37848;BME280;23688;33.130;-117.188;2022-09-13T05:36:44;99316.72;;;22.83;100.00
37848;BME280;23688;33.130;-117.188;2022-09-13T05:39:15;99314.22;;;22.69;100.00
37848;BME280;23688;33.130;-117.188;2022-09-13T05:41:47;99309.72;;;22.77;99.52
37848;BME280;23688;33.130;-117.188;2022-09-13T05:44:14;99308.75;;;22.86;98.88
37848;BME280;23688;33.130;-117.188;2022-09-13T05:46:41;99316.59;;;22.92;99.10
37848;BME280;23688;33.130;-117.188;2022-09-13T05:49:10;99300.81;;;22.88;98.64
37848;BME280;23688;33.130;-117.188;2022-09-13T05:51:38;99309.50;;;22.99;98.30
37848;BME280;23688;33.130;-117.188;2022-09-13T05:54:05;99305.88;;;23.07;97.54
37848;BME280;23688;33.130;-117.188;2022-09-13T05:56:31;99295.34;;;23.01;97.21
37848;BME280;23688;33.130;-117.188;2022-09-13T05:58:57;99297.94;;;23.07;96.65
37848;BME280;23688;33.130;-117.188;2022-09-13T06:01:27;99304.06;;;23.11;96.62
37848;BME280;23688;33.130;-117.188;2022-09-13T06:03:56;99313.78;;;23.12;96.41
37848;BME280;23688;33.130;-117.188;2022-09-13T06:06:26;99312.91;;;23.10;96.43
37848;BME280;23688;33.130;-117.188;2022-09-13T06:08:54;99311.13;;;23.12;96.34
37848;BME280;23688;33.130;-117.188;2022-09-13T06:11:22;99310.22;;;23.15;96.08
37848;BME280;23688;33.130;-117.188;2022-09-13T06:13:49;99303.13;;;23.14;95.33
37848;BME280;23688;33.130;-117.188;2022-09-13T06:16:17;99303.13;;;23.17;95.47
37848;BME280;23688;33.130;-117.188;2022-09-13T06:18:46;99300.47;;;23.17;95.29
37848;BME280;23688;33.130;-117.188;2022-09-13T06:21:19;99315.41;;;23.21;94.80
37848;BME280;23688;33.130;-117.188;2022-09-13T06:23:47;99310.09;;;23.21;94.63
37848;BME280;23688;33.130;-117.188;2022-09-13T06:26:15;99302.16;;;23.22;94.64
37848;BME280;23688;33.130;-117.188;2022-09-13T06:28:42;99302.09;;;23.25;94.41
37848;BME280;23688;33.130;-117.188;2022-09-13T06:31:14;99308.31;;;23.23;94.49
37848;BME280;23688;33.130;-117.188;2022-09-13T06:33:41;99302.97;;;23.26;94.46
37848;BME280;23688;33.130;-117.188;2022-09-13T06:36:09;99310.09;;;23.24;94.36
37848;BME280;23688;33.130;-117.188;2022-09-13T06:38:37;99299.84;;;22.95;95.14
37848;BME280;23688;33.130;-117.188;2022-09-13T06:41:06;99307.06;;;22.80;96.43
37848;BME280;23688;33.130;-117.188;2022-09-13T06:43:33;99300.19;;;22.62;96.82
37848;BME280;23688;33.130;-117.188;2022-09-13T06:46:06;99308.06;;;22.67;97.48
37848;BME280;23688;33.130;-117.188;2022-09-13T06:48:34;99311.53;;;22.75;97.34
37848;BME280;23688;33.130;-117.188;2022-09-13T06:51:03;99302.63;;;22.81;96.66
37848;BME280;23688;33.130;-117.188;2022-09-13T06:53:29;99311.50;;;22.78;96.73
37848;BME280;23688;33.130;-117.188;2022-09-13T06:56:00;99312.44;;;22.70;96.97
37848;BME280;23688;33.130;-117.188;2022-09-13T06:58:28;99310.75;;;22.62;97.44
37848;BME280;23688;33.130;-117.188;2022-09-13T07:01:25;99311.66;;;22.61;97.94
37848;BME280;23688;33.130;-117.188;2022-09-13T07:03:56;99301.38;;;22.34;99.54
37848;BME280;23688;33.130;-117.188;2022-09-13T07:06:25;99303.91;;;22.44;99.50
37848;BME280;23688;33.130;-117.188;2022-09-13T07:08:53;99297.69;;;22.49;98.77
37848;BME280;23688;33.130;-117.188;2022-09-13T07:11:22;99288.72;;;22.63;98.14
37848;BME280;23688;33.130;-117.188;2022-09-13T07:13:54;99305.28;;;22.81;97.09
37848;BME280;23688;33.130;-117.188;2022-09-13T07:16:23;99302.53;;;22.87;96.82
37848;BME280;23688;33.130;-117.188;2022-09-13T07:18:54;99299.94;;;22.84;96.63
37848;BME280;23688;33.130;-117.188;2022-09-13T07:21:21;99293.00;;;22.75;96.94
37848;BME280;23688;33.130;-117.188;2022-09-13T07:23:48;99294.59;;;22.90;96.67
37848;BME280;23688;33.130;-117.188;2022-09-13T07:26:15;99291.00;;;22.94;95.85
37848;BME280;23688;33.130;-117.188;2022-09-13T07:28:46;99293.56;;;23.02;95.79
37848;BME280;23688;33.130;-117.188;2022-09-13T07:31:18;99300.59;;;23.07;95.36
37848;BME280;23688;33.130;-117.188;2022-09-13T07:33:46;99300.53;;;23.09;94.58
37848;BME280;23688;33.130;-117.188;2022-09-13T07:36:14;99297.91;;;23.09;94.55
37848;BME280;23688;33.130;-117.188;2022-09-13T07:38:43;99269.84;;;22.93;95.02
37848;BME280;23688;33.130;-117.188;2022-09-13T07:41:22;99292.63;;;23.07;94.68
37848;BME280;23688;33.130;-117.188;2022-09-13T07:43:49;99279.47;;;23.03;94.27
37848;BME280;23688;33.130;-117.188;2022-09-13T07:46:20;99286.44;;;23.10;94.00
37848;BME280;23688;33.130;-117.188;2022-09-13T07:48:48;99275.84;;;23.10;93.22
37848;BME280;23688;33.130;-117.188;2022-09-13T07:51:19;99277.56;;;23.14;93.37
37848;BME280;23688;33.130;-117.188;2022-09-13T07:53:48;99279.31;;;23.14;92.77
37848;BME280;23688;33.130;-117.188;2022-09-13T07:56:20;99277.53;;;23.16;92.89
37848;BME280;23688;33.130;-117.188;2022-09-13T07:58:48;99277.56;;;23.14;93.07
37848;BME280;23688;33.130;-117.188;2022-09-13T08:01:49;99274.88;;;23.17;93.62
37848;BME280;23688;33.130;-117.188;2022-09-13T08:04:21;99271.31;;;23.18;93.75
37848;BME280;23688;33.130;-117.188;2022-09-13T08:06:48;99264.22;;;23.19;93.47
37848;BME280;23688;33.130;-117.188;2022-09-13T08:09:15;99270.44;;;23.18;93.34
37848;BME280;23688;33.130;-117.188;2022-09-13T08:11:44;99270.38;;;23.21;93.41
37848;BME280;23688;33.130;-117.188;2022-09-13T08:14:14;99267.72;;;23.24;93.12
37848;BME280;23688;33.130;-117.188;2022-09-13T08:16:41;99267.72;;;23.22;92.85
37848;BME280;23688;33.130;-117.188;2022-09-13T08:19:10;99267.72;;;23.24;92.79
37848;BME280;23688;33.130;-117.188;2022-09-13T08:21:39;99264.16;;;23.26;93.00
37848;BME280;23688;33.130;-117.188;2022-09-13T08:24:10;99263.22;;;23.27;93.01
37848;BME280;23688;33.130;-117.188;2022-09-13T08:26:38;99257.13;;;23.24;92.36
37848;BME280;23688;33.130;-117.188;2022-09-13T08:29:05;99256.25;;;23.22;92.87
37848;BME280;23688;33.130;-117.188;2022-09-13T08:31:33;99255.31;;;23.26;92.06
37848;BME280;23688;33.130;-117.188;2022-09-13T08:34:00;99249.09;;;23.28;92.02
37848;BME280;23688;33.130;-117.188;2022-09-13T08:36:27;99250.88;;;23.28;92.12
37848;BME280;23688;33.130;-117.188;2022-09-13T08:39:02;99245.63;;;23.25;92.05
37848;BME280;23688;33.130;-117.188;2022-09-13T08:44:24;99241.47;;;23.05;93.80
37848;BME280;23688;33.130;-117.188;2022-09-13T08:49:43;99236.06;;;23.12;95.07
37848;BME280;23688;33.130;-117.188;2022-09-13T08:54:54;99231.69;;;23.12;94.98
37848;BME280;23688;33.130;-117.188;2022-09-13T09:00:41;99223.75;;;23.11;95.46
37848;BME280;23688;33.130;-117.188;2022-09-13T09:05:46;99225.53;;;23.08;95.95
37848;BME280;23688;33.130;-117.188;2022-09-13T09:08:27;99229.97;;;23.08;95.86
37848;BME280;23688;33.130;-117.188;2022-09-13T09:10:59;99222.91;;;23.07;95.73
37848;BME280;23688;33.130;-117.188;2022-09-13T09:13:36;99222.88;;;23.10;96.03
37848;BME280;23688;33.130;-117.188;2022-09-13T09:18:44;99224.03;;;22.86;96.71
37848;BME280;23688;33.130;-117.188;2022-09-13T09:21:16;99214.41;;;22.80;97.25
37848;BME280;23688;33.130;-117.188;2022-09-13T09:23:51;99211.78;;;22.79;97.56
37848;BME280;23688;33.130;-117.188;2022-09-13T09:26:24;99214.47;;;22.74;97.98
37848;BME280;23688;33.130;-117.188;2022-09-13T09:29:05;99209.44;;;22.56;98.85
37848;BME280;23688;33.130;-117.188;2022-09-13T09:37:22;99193.41;;;22.68;99.21
37848;BME280;23688;33.130;-117.188;2022-09-13T09:39:54;99194.31;;;22.64;99.54
37848;BME280;23688;33.130;-117.188;2022-09-13T09:42:26;99196.97;;;22.65;99.64
37848;BME280;23688;33.130;-117.188;2022-09-13T09:45:32;99197.94;;;22.58;100.00
37848;BME280;23688;33.130;-117.188;2022-09-13T09:48:06;99199.72;;;22.55;100.00
37848;BME280;23688;33.130;-117.188;2022-09-13T09:50:36;99196.16;;;22.59;100.00
37848;BME280;23688;33.130;-117.188;2022-09-13T09:53:07;99179.56;;;22.44;100.00
37848;BME280;23688;33.130;-117.188;2022-09-13T09:56:05;99192.78;;;22.46;100.00
37848;BME280;23688;33.130;-117.188;2022-09-13T10:01:04;99199.03;;;22.39;100.00
37848;BME280;23688;33.130;-117.188;2022-09-13T10:03:32;99189.53;;;22.18;100.00
37848;BME280;23688;33.130;-117.188;2022-09-13T10:06:20;99204.50;;;22.19;100.00
37848;BME280;23688;33.130;-117.188;2022-09-13T10:11:56;99200.97;;;22.18;100.00
37848;BME280;23688;33.130;-117.188;2022-09-13T10:14:44;99201.00;;;22.21;100.00
37848;BME280;23688;33.130;-117.188;2022-09-13T10:17:23;99194.81;;;22.22;100.00
37848;BME280;23688;33.130;-117.188;2022-09-13T10:19:57;99194.84;;;22.13;100.00
37848;BME280;23688;33.130;-117.188;2022-09-13T10:22:27;99186.16;;;22.05;100.00
37848;BME280;23688;33.130;-117.188;2022-09-13T10:25:25;99187.84;;;22.09;100.00
37848;BME280;23688;33.130;-117.188;2022-09-13T10:27:56;99160.75;;;21.90;100.00
37848;BME280;23688;33.130;-117.188;2022-09-13T10:33:34;99188.88;;;21.96;100.00
37848;BME280;23688;33.130;-117.188;2022-09-13T10:36:11;99181.69;;;22.12;100.00
37848;BME280;23688;33.130;-117.188;2022-09-13T10:38:40;99188.72;;;22.11;100.00
37848;BME280;23688;33.130;-117.188;2022-09-13T10:41:20;99187.09;;;21.98;100.00
37848;BME280;23688;33.130;-117.188;2022-09-13T10:43:57;99190.66;;;21.94;100.00
37848;BME280;23688;33.130;-117.188;2022-09-13T10:46:26;99181.09;;;21.79;100.00
37848;BME280;23688;33.130;-117.188;2022-09-13T10:48:54;99184.59;;;21.79;100.00
37848;BME280;23688;33.130;-117.188;2022-09-13T10:54:18;99184.50;;;21.92;100.00
37848;BME280;23688;33.130;-117.188;2022-09-13T10:56:46;99182.66;;;22.00;100.00
37848;BME280;23688;33.130;-117.188;2022-09-13T10:59:19;99173.91;;;21.95;100.00
37848;BME280;23688;33.130;-117.188;2022-09-13T11:07:35;99175.75;;;21.87;100.00
37848;BME280;23688;33.130;-117.188;2022-09-13T11:15:55;99174.00;;;21.84;100.00
37848;BME280;23688;33.130;-117.188;2022-09-13T11:24:08;99170.88;;;21.39;100.00
37848;BME280;23688;33.130;-117.188;2022-09-13T11:26:49;99170.72;;;21.59;100.00
37848;BME280;23688;33.130;-117.188;2022-09-13T11:29:55;99169.69;;;21.72;100.00
37848;BME280;23688;33.130;-117.188;2022-09-13T11:40:59;99171.19;;;21.99;100.00
37848;BME280;23688;33.130;-117.188;2022-09-13T11:43:35;99173.00;;;21.96;100.00
37848;BME280;23688;33.130;-117.188;2022-09-13T11:57:26;99172.59;;;21.46;100.00
37848;BME280;23688;33.130;-117.188;2022-09-13T11:59:58;99164.75;;;21.28;100.00
37848;BME280;23688;33.130;-117.188;2022-09-13T12:02:38;99178.78;;;21.37;100.00
37848;BME280;23688;33.130;-117.188;2022-09-13T12:07:37;99158.66;;;21.20;100.00
37848;BME280;23688;33.130;-117.188;2022-09-13T12:10:23;99176.13;;;21.37;100.00
37848;BME280;23688;33.130;-117.188;2022-09-13T12:12:52;99177.94;;;21.32;100.00
37848;BME280;23688;33.130;-117.188;2022-09-13T12:15:30;99179.66;;;21.40;100.00
37848;BME280;23688;33.130;-117.188;2022-09-13T12:18:02;99174.31;;;21.49;100.00
37848;BME280;23688;33.130;-117.188;2022-09-13T12:20:35;99179.44;;;21.70;100.00
37848;BME280;23688;33.130;-117.188;2022-09-13T12:23:10;99167.06;;;21.74;100.00
37848;BME280;23688;33.130;-117.188;2022-09-13T12:26:12;99175.78;;;21.84;100.00
37848;BME280;23688;33.130;-117.188;2022-09-13T12:28:55;99173.91;;;21.95;100.00
37848;BME280;23688;33.130;-117.188;2022-09-13T12:31:28;99171.16;;;22.04;100.00
37848;BME280;23688;33.130;-117.188;2022-09-13T12:33:56;99173.75;;;22.10;100.00
37848;BME280;23688;33.130;-117.188;2022-09-13T12:42:49;99170.09;;;22.27;100.00
37848;BME280;23688;33.130;-117.188;2022-09-13T12:45:31;99175.34;;;22.28;100.00
37848;BME280;23688;33.130;-117.188;2022-09-13T12:54:30;99177.06;;;22.34;100.00
37848;BME280;23688;33.130;-117.188;2022-09-13T13:02:40;99179.56;;;22.44;100.00
37848;BME280;23688;33.130;-117.188;2022-09-13T13:05:34;99153.25;;;22.32;100.00
37848;BME280;23688;33.130;-117.188;2022-09-13T13:08:06;99186.59;;;22.49;100.00
37848;BME280;23688;33.130;-117.188;2022-09-13T13:10:40;99170.78;;;22.42;100.00
37848;BME280;23688;33.130;-117.188;2022-09-13T13:13:13;99187.59;;;22.37;100.00
37848;BME280;23688;33.130;-117.188;2022-09-13T13:23:37;99183.19;;;22.36;100.00
37848;BME280;23688;33.130;-117.188;2022-09-13T13:29:22;99177.06;;;22.34;100.00
37848;BME280;23688;33.130;-117.188;2022-09-13T13:34:36;99185.03;;;22.29;100.00
37848;BME280;23688;33.130;-117.188;2022-09-13T13:37:27;99188.56;;;22.30;100.00
37848;BME280;23688;33.130;-117.188;2022-09-13T13:40:11;99191.97;;;22.38;100.00
37848;BME280;23688;33.130;-117.188;2022-09-13T13:42:38;99187.56;;;22.40;100.00
37848;BME280;23688;33.130;-117.188;2022-09-13T13:45:20;99181.34;;;22.44;100.00
37848;BME280;23688;33.130;-117.188;2022-09-13T13:48:15;99190.16;;;22.44;100.00
37848;BME280;23688;33.130;-117.188;2022-09-13T13:51:18;99187.50;;;22.43;100.00
37848;BME280;23688;33.130;-117.188;2022-09-13T13:53:52;99198.03;;;22.48;100.00
37848;BME280;23688;33.130;-117.188;2022-09-13T13:56:46;99185.66;;;22.51;100.00
37848;BME280;23688;33.130;-117.188;2022-09-13T13:59:21;99201.50;;;22.56;100.00
37848;BME280;23688;33.130;-117.188;2022-09-13T14:01:52;99207.69;;;22.53;100.00
37848;BME280;23688;33.130;-117.188;2022-09-13T14:04:46;99198.94;;;22.45;100.00
37848;BME280;23688;33.130;-117.188;2022-09-13T14:07:56;99202.47;;;22.47;100.00
37848;BME280;23688;33.130;-117.188;2022-09-13T14:10:23;99212.91;;;22.58;100.00
37848;BME280;23688;33.130;-117.188;2022-09-13T14:13:16;99220.84;;;22.58;99.96
37848;BME280;23688;33.130;-117.188;2022-09-13T14:21:40;99221.66;;;22.64;100.00
37848;BME280;23688;33.130;-117.188;2022-09-13T14:24:19;99219.81;;;22.71;100.00
37848;BME280;23688;33.130;-117.188;2022-09-13T14:26:47;99220.69;;;22.72;100.00
37848;BME280;23688;33.130;-117.188;2022-09-13T14:29:18;99220.63;;;22.75;100.00
37848;BME280;23688;33.130;-117.188;2022-09-13T14:31:46;99221.53;;;22.75;99.96
37848;BME280;23688;33.130;-117.188;2022-09-13T14:34:27;99227.63;;;22.82;98.57
37848;BME280;23688;33.130;-117.188;2022-09-13T14:36:59;99227.59;;;22.85;97.53
37848;BME280;23688;33.130;-117.188;2022-09-13T14:39:26;99223.22;;;22.82;97.33
37848;BME280;23688;33.130;-117.188;2022-09-13T14:42:02;99231.06;;;22.90;96.86
37848;BME280;23688;33.130;-117.188;2022-09-13T14:44:32;99224.81;;;22.94;96.24
37848;BME280;23688;33.130;-117.188;2022-09-13T14:49:35;99218.63;;;22.95;96.17
37848;BME280;23688;33.130;-117.188;2022-09-13T14:52:20;99215.97;;;22.98;96.22
37848;BME280;23688;33.130;-117.188;2022-09-13T14:54:51;99215.91;;;23.03;95.19
37848;BME280;23688;33.130;-117.188;2022-09-13T14:57:28;99227.25;;;23.11;94.01
37848;BME280;23688;33.130;-117.188;2022-09-13T15:00:06;99222.91;;;23.07;94.08
37848;BME280;23688;33.130;-117.188;2022-09-13T15:02:37;99225.47;;;23.15;94.46
37848;BME280;23688;33.130;-117.188;2022-09-13T15:05:12;99231.50;;;23.23;94.45
37848;BME280;23688;33.130;-117.188;2022-09-13T15:07:40;99216.56;;;23.19;94.43
37848;BME280;23688;33.130;-117.188;2022-09-13T15:10:26;99233.13;;;23.35;94.22
37848;BME280;23688;33.130;-117.188;2022-09-13T15:15:42;99227.56;;;23.50;92.99
37848;BME280;23688;33.130;-117.188;2022-09-13T15:20:59;99216.91;;;23.56;90.80
37848;BME280;23688;33.130;-117.188;2022-09-13T15:23:40;99223.78;;;23.66;89.50
37848;BME280;23688;33.130;-117.188;2022-09-13T15:26:10;99239.47;;;23.82;89.05
37848;BME280;23688;33.130;-117.188;2022-09-13T15:31:31;99218.25;;;23.83;87.22
37848;BME280;23688;33.130;-117.188;2022-09-13T15:37:12;99234.78;;;23.98;87.95
37848;BME280;23688;33.130;-117.188;2022-09-13T15:39:47;99221.50;;;23.99;86.64
37848;BME280;23688;33.130;-117.188;2022-09-13T15:42:15;99233.66;;;24.12;86.53
37848;BME280;23688;33.130;-117.188;2022-09-13T15:44:42;99233.50;;;24.22;85.91
37848;BME280;23688;33.130;-117.188;2022-09-13T15:47:13;99236.22;;;24.17;84.82
37848;BME280;23688;33.130;-117.188;2022-09-13T15:49:47;99236.06;;;24.26;85.22
37848;BME280;23688;33.130;-117.188;2022-09-13T15:52:15;99239.31;;;24.41;84.88
37848;BME280;23688;33.130;-117.188;2022-09-13T15:54:42;99229.41;;;24.52;83.81
37848;BME280;23688;33.130;-117.188;2022-09-13T15:57:15;99233.44;;;24.71;83.87
37848;BME280;23688;33.130;-117.188;2022-09-13T15:59:42;99233.09;;;24.87;82.32
37848;BME280;23688;33.130;-117.188;2022-09-13T16:02:19;99224.84;;;25.02;80.05
37848;BME280;23688;33.130;-117.188;2022-09-13T16:04:46;99229.03;;;25.12;79.47
37848;BME280;23688;33.130;-117.188;2022-09-13T16:07:13;99241.31;;;25.19;78.12
37848;BME280;23688;33.130;-117.188;2022-09-13T16:09:40;99240.47;;;25.17;78.19
37848;BME280;23688;33.130;-117.188;2022-09-13T16:12:06;99221.91;;;25.14;77.41
37848;BME280;23688;33.130;-117.188;2022-09-13T16:14:33;99225.44;;;25.13;76.41
37848;BME280;23688;33.130;-117.188;2022-09-13T16:17:17;99236.78;;;25.23;76.09
37848;BME280;23688;33.130;-117.188;2022-09-13T16:19:44;99245.50;;;25.30;76.43